Time;durP1;ratioP1;P1;durP2;ratioP2;P2;SDS_P1;SDS_P2;PMS_P1;PMS_P2;Temp;Humidity;BMP_temperature;BMP_pressure;BME280_temperature;BME280_humidity;BME280_pressure;Samples;Min_cycle;Max_cycle;Signal;HPM_P1;HPM_P2
2022/04/05 00:01:21;;;;;;;8.40;4.45;;;2.10;99.90;;;;;;5080462;28;20028;-76
2022/04/05 00:03:47;;;;;;;8.48;4.80;;;1.90;99.90;;;;;;5084039;28;20024;-77
2022/04/05 00:06:13;;;;;;;8.32;5.22;;;1.90;99.90;;;;;;5086766;28;20024;-75
2022/04/05 00:08:38;;;;;;;7.75;4.47;;;2.00;99.90;;;;;;5087187;28;20658;-75
2022/04/05 00:11:04;;;;;;;6.10;4.38;;;2.00;99.90;;;;;;5087626;28;20024;-75
2022/04/05 00:13:30;;;;;;;7.13;4.75;;;2.10;99.90;;;;;;5087137;28;20546;-77
2022/04/05 00:15:55;;;;;;;7.75;4.00;;;2.10;99.90;;;;;;5082648;28;20520;-77
2022/04/05 00:18:21;;;;;;;8.48;4.50;;;2.10;99.90;;;;;;5085425;28;20027;-75
2022/04/05 00:20:47;;;;;;;6.88;4.00;;;2.10;99.90;;;;;;5082373;28;20149;-75
2022/04/05 00:23:13;;;;;;;8.13;4.75;;;2.10;99.90;;;;;;5076413;28;20036;-77
2022/04/05 00:25:39;;;;;;;6.40;4.10;;;2.00;99.90;;;;;;5078168;28;20017;-77
2022/04/05 00:28:05;;;;;;;8.63;4.40;;;1.90;99.90;;;;;;5081405;28;20031;-77
2022/04/05 00:30:31;;;;;;;9.18;4.40;;;1.80;99.90;;;;;;5087044;28;20103;-77
2022/04/05 00:32:56;;;;;;;6.28;4.30;;;1.90;99.90;;;;;;5089103;28;20032;-77
2022/04/05 00:35:23;;;;;;;6.50;4.10;;;1.80;99.90;;;;;;5089781;28;20020;-77
2022/04/05 00:37:49;;;;;;;6.38;4.13;;;1.90;99.90;;;;;;5091635;28;20035;-77
2022/04/05 00:40:15;;;;;;;7.45;4.72;;;1.80;99.90;;;;;;5083562;28;20063;-77
2022/04/05 00:42:41;;;;;;;8.30;4.10;;;1.70;99.90;;;;;;5088428;28;20032;-77
2022/04/05 00:45:08;;;;;;;7.45;4.10;;;1.70;99.90;;;;;;5089876;28;20506;-77
2022/04/05 00:47:35;;;;;;;8.15;4.63;;;1.60;99.90;;;;;;5091783;28;20039;-77
2022/04/05 00:50:01;;;;;;;5.97;3.65;;;1.60;99.90;;;;;;5090326;28;20026;-77
2022/04/05 00:52:27;;;;;;;8.30;4.45;;;1.60;99.90;;;;;;5092039;28;20062;-77
2022/04/05 00:54:54;;;;;;;8.68;4.82;;;1.60;99.90;;;;;;5092170;28;20064;-77
2022/04/05 00:57:22;;;;;;;6.63;4.35;;;1.50;99.90;;;;;;5092392;28;20020;-77
2022/04/05 00:59:52;;;;;;;8.45;4.25;;;1.40;99.90;;;;;;5091334;28;20019;-77
2022/04/05 01:02:20;;;;;;;5.93;3.85;;;1.30;99.90;;;;;;5092051;28;20032;-77
2022/04/05 01:04:47;;;;;;;5.57;3.45;;;1.30;99.90;;;;;;5089866;28;20028;-77
2022/04/05 01:07:19;;;;;;;5.75;3.90;;;1.30;99.90;;;;;;5091219;28;20032;-77
2022/04/05 01:09:45;;;;;;;8.25;4.13;;;1.30;99.90;;;;;;5091540;28;20040;-77
2022/04/05 01:12:13;;;;;;;7.38;4.28;;;1.40;99.90;;;;;;5092787;28;20028;-77
2022/04/05 01:14:40;;;;;;;9.00;4.10;;;1.30;99.90;;;;;;5084850;28;20146;-76
2022/04/05 01:17:08;;;;;;;8.50;4.55;;;1.20;99.90;;;;;;5091209;28;20055;-77
2022/04/05 01:19:35;;;;;;;6.65;3.75;;;1.00;99.90;;;;;;5088436;28;20457;-77
2022/04/05 01:22:01;;;;;;;8.32;3.88;;;1.00;99.90;;;;;;5089323;28;20069;-77
2022/04/05 01:24:27;;;;;;;7.72;4.13;;;1.10;99.90;;;;;;5073526;28;20025;-77
2022/04/05 01:26:57;;;;;;;5.93;3.35;;;1.20;99.90;;;;;;5073575;28;20027;-77
2022/04/05 01:29:25;;;;;;;7.20;4.00;;;1.30;99.90;;;;;;5078416;28;20052;-77
2022/04/05 01:31:57;;;;;;;7.78;4.25;;;1.30;99.90;;;;;;5084935;28;20086;-77
2022/04/05 01:34:25;;;;;;;7.20;4.07;;;1.30;99.90;;;;;;5082612;28;20490;-77
2022/04/05 01:36:56;;;;;;;7.80;4.45;;;1.40;99.90;;;;;;5090573;28;20097;-77
2022/04/05 01:39:24;;;;;;;6.97;3.25;;;1.40;99.90;;;;;;5090141;28;20126;-77
2022/04/05 01:41:58;;;;;;;6.90;3.88;;;1.20;99.90;;;;;;5093327;28;20036;-77
2022/04/05 01:44:25;;;;;;;5.20;3.38;;;1.30;99.90;;;;;;5085171;28;20083;-76
2022/04/05 01:46:50;;;;;;;7.20;3.70;;;1.30;99.90;;;;;;5078785;28;20074;-77
2022/04/05 01:49:16;;;;;;;5.45;3.60;;;1.20;99.90;;;;;;5078455;28;20028;-77
2022/04/05 01:51:44;;;;;;;6.75;3.95;;;1.20;99.90;;;;;;5086623;28;20033;-77
2022/04/05 01:54:12;;;;;;;5.50;3.67;;;1.00;99.90;;;;;;5088560;28;20024;-77
2022/04/05 01:56:40;;;;;;;6.53;3.88;;;0.90;99.90;;;;;;5091479;28;20036;-77
2022/04/05 01:59:06;;;;;;;5.03;3.47;;;1.00;99.90;;;;;;5079088;28;20020;-76
2022/04/05 02:01:32;;;;;;;10.48;4.60;;;1.00;99.90;;;;;;5081937;28;20028;-77
2022/04/05 02:03:58;;;;;;;6.05;3.80;;;1.10;99.90;;;;;;5089766;28;20481;-77
2022/04/05 02:06:25;;;;;;;5.78;3.78;;;1.10;99.90;;;;;;5088912;28;20039;-77
2022/04/05 02:08:51;;;;;;;5.43;3.50;;;1.00;99.90;;;;;;5086034;28;20032;-76
2022/04/05 02:11:17;;;;;;;6.47;3.75;;;1.10;99.90;;;;;;5078481;28;20555;-77
2022/04/05 02:13:42;;;;;;;5.57;3.25;;;1.10;99.90;;;;;;5083130;28;20028;-77
2022/04/05 02:16:08;;;;;;;6.32;3.80;;;1.00;99.90;;;;;;5083358;28;20491;-77
2022/04/05 02:18:37;;;;;;;5.80;3.47;;;0.90;99.90;;;;;;5088189;28;20545;-77
2022/04/05 02:21:03;;;;;;;4.65;3.13;;;1.00;99.90;;;;;;5086592;28;20146;-77
2022/04/05 02:23:29;;;;;;;6.30;3.47;;;1.10;99.90;;;;;;5086374;28;20032;-77
2022/04/05 02:25:55;;;;;;;5.43;3.50;;;1.00;99.90;;;;;;5081517;28;20014;-77
2022/04/05 02:28:21;;;;;;;6.55;3.47;;;1.00;99.90;;;;;;5084602;28;20102;-76
2022/04/05 02:30:47;;;;;;;4.78;3.13;;;1.00;99.90;;;;;;5074531;28;20031;-76
2022/04/05 02:33:12;;;;;;;6.13;3.40;;;1.00;99.90;;;;;;5070654;28;20078;-77
2022/04/05 02:35:38;;;;;;;6.82;3.50;;;1.10;99.90;;;;;;5091147;28;20024;-76
2022/04/05 02:38:04;;;;;;;5.82;3.42;;;1.10;99.90;;;;;;5081620;28;20482;-76
2022/04/05 02:40:30;;;;;;;8.32;3.63;;;1.00;99.90;;;;;;5089784;28;20059;-76
2022/04/05 02:42:56;;;;;;;5.03;3.22;;;0.90;99.90;;;;;;5089233;28;20048;-76
2022/04/05 02:45:22;;;;;;;4.82;3.20;;;0.60;99.90;;;;;;5088420;28;20035;-76
2022/04/05 02:47:49;;;;;;;8.10;4.70;;;0.80;99.90;;;;;;5072316;28;20497;-76
2022/04/05 02:50:18;;;;;;;7.45;3.80;;;0.80;99.90;;;;;;5074044;28;20020;-76
2022/04/05 02:52:48;;;;;;;7.35;4.40;;;0.90;99.90;;;;;;5074374;28;20038;-76
2022/04/05 02:55:15;;;;;;;8.05;3.97;;;0.90;99.90;;;;;;5089244;28;20080;-76
2022/04/05 02:57:43;;;;;;;7.68;4.07;;;0.80;99.90;;;;;;5089415;28;20040;-76
2022/04/05 03:00:11;;;;;;;5.88;4.15;;;0.70;99.90;;;;;;5091724;28;20062;-76
2022/04/05 03:02:38;;;;;;;6.57;3.30;;;0.60;99.90;;;;;;5082342;28;20059;-76
2022/04/05 03:05:06;;;;;;;6.22;3.63;;;0.40;99.90;;;;;;5081104;28;20032;-76
2022/04/05 03:07:34;;;;;;;5.43;3.70;;;0.60;99.90;;;;;;5088677;28;20031;-76
2022/04/05 03:10:01;;;;;;;6.18;3.33;;;0.40;99.90;;;;;;5089699;28;20031;-76
2022/04/05 03:12:26;;;;;;;7.20;3.90;;;0.30;99.90;;;;;;5088708;28;20047;-76
2022/04/05 03:14:52;;;;;;;6.13;3.53;;;0.20;99.90;;;;;;5071431;28;20020;-76
2022/04/05 03:17:18;;;;;;;6.07;3.58;;;0.20;99.90;;;;;;5079131;28;20020;-76
2022/04/05 03:19:44;;;;;;;6.95;3.38;;;0.40;99.90;;;;;;5080377;28;20115;-76
2022/04/05 03:22:10;;;;;;;6.45;3.40;;;0.60;99.90;;;;;;5073990;28;20107;-76
2022/04/05 03:24:36;;;;;;;5.70;3.45;;;0.60;99.90;;;;;;5085926;28;20161;-76
2022/04/05 03:27:02;;;;;;;7.80;3.78;;;0.60;99.90;;;;;;5086414;28;20032;-76
2022/04/05 03:29:28;;;;;;;6.15;3.20;;;0.50;99.90;;;;;;5081013;28;20047;-76
2022/04/05 03:31:54;;;;;;;4.82;3.17;;;0.40;99.90;;;;;;5088422;28;20024;-76
2022/04/05 03:34:20;;;;;;;4.78;3.35;;;0.30;99.90;;;;;;5087422;28;20028;-76
2022/04/05 03:36:46;;;;;;;5.80;3.47;;;0.40;99.90;;;;;;5088877;28;20015;-76
2022/04/05 03:39:13;;;;;;;5.10;3.08;;;0.40;99.90;;;;;;5089752;28;20102;-76
2022/04/05 03:41:40;;;;;;;6.80;3.40;;;0.40;99.90;;;;;;5076896;28;20028;-76
2022/04/05 03:44:06;;;;;;;5.55;3.70;;;0.50;99.90;;;;;;5076186;28;20116;-76
2022/04/05 03:46:32;;;;;;;7.07;3.60;;;0.60;99.90;;;;;;5078410;28;20036;-76
2022/04/05 03:48:58;;;;;;;5.07;3.05;;;0.60;99.90;;;;;;5082736;28;20033;-76
2022/04/05 03:51:24;;;;;;;5.78;3.33;;;0.70;99.90;;;;;;5087579;28;20024;-76
2022/04/05 03:53:49;;;;;;;6.45;4.03;;;0.80;99.90;;;;;;5072739;28;20555;-76
2022/04/05 03:56:15;;;;;;;4.88;3.03;;;0.80;99.90;;;;;;5079013;28;20040;-76
2022/04/05 03:58:41;;;;;;;5.03;3.30;;;0.60;99.90;;;;;;5083242;28;20396;-76
2022/04/05 04:01:07;;;;;;;5.90;3.22;;;0.20;99.90;;;;;;5086454;28;20016;-76
2022/04/05 04:03:34;;;;;;;5.18;3.38;;;0.10;99.90;;;;;;5087627;28;20127;-76
2022/04/05 04:05:59;;;;;;;3.80;2.70;;;0.20;99.90;;;;;;5085648;28;20017;-77
2022/04/05 04:08:27;;;;;;;4.55;3.15;;;0.30;99.90;;;;;;5085635;28;20047;-76
2022/04/05 04:10:53;;;;;;;5.72;3.55;;;0.30;99.90;;;;;;5090214;28;20022;-76
2022/04/05 04:13:19;;;;;;;5.20;3.17;;;0.30;99.90;;;;;;5091612;28;20107;-76
2022/04/05 04:15:45;;;;;;;4.18;3.08;;;0.30;99.90;;;;;;5087967;28;20035;-76
2022/04/05 04:18:11;;;;;;;5.80;3.38;;;0.20;99.90;;;;;;5073846;28;20021;-76
2022/04/05 04:20:42;;;;;;;6.45;3.97;;;0.30;99.90;;;;;;5085550;28;20026;-76
2022/04/05 04:23:11;;;;;;;4.83;3.57;;;0.20;99.90;;;;;;5088142;28;20023;-76
2022/04/05 04:25:40;;;;;;;6.40;3.72;;;-0.20;99.90;;;;;;5084384;28;20020;-76
2022/04/05 04:28:08;;;;;;;5.20;3.22;;;0.00;99.90;;;;;;5085287;28;20421;-76
2022/04/05 04:30:35;;;;;;;5.25;3.45;;;0.20;99.90;;;;;;5090361;28;20024;-76
2022/04/05 04:33:01;;;;;;;4.90;3.30;;;0.20;99.90;;;;;;5088556;28;20024;-76
2022/04/05 04:35:27;;;;;;;4.00;2.95;;;0.20;99.90;;;;;;5084166;28;20085;-76
2022/04/05 04:37:53;;;;;;;4.78;2.90;;;-0.10;99.90;;;;;;5084719;28;20055;-76
2022/04/05 04:40:19;;;;;;;7.05;3.97;;;-0.20;99.90;;;;;;5090825;28;20093;-76
2022/04/05 04:42:45;;;;;;;7.78;3.28;;;-0.10;99.90;;;;;;5090800;28;20032;-76
2022/04/05 04:45:12;;;;;;;5.18;2.95;;;-0.10;99.90;;;;;;5092994;28;20092;-76
2022/04/05 04:47:38;;;;;;;6.15;3.42;;;-0.20;99.90;;;;;;5091349;28;20036;-76
2022/04/05 04:50:06;;;;;;;5.57;4.00;;;-0.10;99.90;;;;;;5086067;28;20030;-76
2022/04/05 04:52:31;;;;;;;5.32;3.13;;;-0.10;99.90;;;;;;5090560;28;20047;-76
2022/04/05 04:54:57;;;;;;;4.70;3.13;;;0.00;99.90;;;;;;5088465;28;20045;-76
2022/04/05 04:57:25;;;;;;;5.28;3.05;;;0.10;99.90;;;;;;5092489;28;20154;-76
2022/04/05 04:59:51;;;;;;;6.75;3.20;;;-0.10;99.90;;;;;;5093849;28;20025;-76
2022/04/05 05:02:17;;;;;;;4.43;2.92;;;-0.10;99.90;;;;;;5083242;28;20582;-76
2022/04/05 05:04:43;;;;;;;6.32;4.00;;;-0.10;99.90;;;;;;5090973;28;20062;-76
2022/04/05 05:07:09;;;;;;;7.38;3.72;;;0.00;99.90;;;;;;5090544;28;20304;-76
2022/04/05 05:09:35;;;;;;;5.35;3.35;;;-0.10;99.90;;;;;;5088371;28;20027;-76
2022/04/05 05:12:01;;;;;;;4.72;3.40;;;-0.20;99.90;;;;;;5077929;28;20032;-76
2022/04/05 05:14:27;;;;;;;5.82;3.58;;;-0.10;99.90;;;;;;5082395;28;20016;-76
2022/04/05 05:16:54;;;;;;;6.45;3.53;;;-0.10;99.90;;;;;;5084458;28;20032;-76
2022/04/05 05:19:21;;;;;;;4.95;3.58;;;-0.10;99.90;;;;;;5083695;28;20017;-76
2022/04/05 05:21:47;;;;;;;5.57;3.55;;;-0.30;99.90;;;;;;5089036;28;20024;-76
2022/04/05 05:24:12;;;;;;;4.93;3.72;;;-0.30;99.90;;;;;;5072460;28;20493;-76
2022/04/05 05:26:38;;;;;;;6.60;3.60;;;-0.30;99.90;;;;;;5092226;28;20039;-76
2022/04/05 05:29:04;;;;;;;8.32;4.05;;;-0.20;99.90;;;;;;5091125;28;20093;-76
2022/04/05 05:31:29;;;;;;;5.25;3.55;;;-0.40;99.90;;;;;;5090251;28;20517;-76
2022/04/05 05:33:55;;;;;;;8.35;3.95;;;-0.40;99.90;;;;;;5085943;28;20104;-76
2022/04/05 05:36:21;;;;;;;9.18;3.70;;;-0.20;99.90;;;;;;5089091;28;20383;-77
2022/04/05 05:38:46;;;;;;;6.78;3.42;;;-0.10;99.90;;;;;;5092734;28;20408;-76
2022/04/05 05:41:12;;;;;;;5.32;3.38;;;-0.10;99.90;;;;;;5088462;28;20030;-76
2022/04/05 05:43:38;;;;;;;6.03;3.53;;;-0.20;99.90;;;;;;5090640;28;20024;-76
2022/04/05 05:46:06;;;;;;;7.78;3.22;;;-0.10;99.90;;;;;;5090641;28;20049;-76
2022/04/05 05:48:33;;;;;;;6.65;3.38;;;0.00;99.90;;;;;;5089958;28;20023;-77
2022/04/05 05:50:59;;;;;;;6.55;3.50;;;0.00;99.90;;;;;;5077895;28;20028;-76
2022/04/05 05:53:25;;;;;;;5.25;3.00;;;-0.20;99.90;;;;;;5087317;28;20455;-76
2022/04/05 05:55:51;;;;;;;5.72;3.42;;;-0.10;99.90;;;;;;5090200;28;20142;-76
2022/04/05 05:58:16;;;;;;;5.00;3.58;;;0.00;99.90;;;;;;5090325;28;20536;-76
2022/04/05 06:00:42;;;;;;;5.65;3.63;;;0.10;99.90;;;;;;5072613;28;20024;-77
2022/04/05 06:03:10;;;;;;;5.70;3.55;;;0.10;99.90;;;;;;5091420;28;20411;-76
2022/04/05 06:05:36;;;;;;;5.22;3.40;;;-0.20;99.90;;;;;;5082861;28;20043;-76
2022/04/05 06:08:04;;;;;;;5.15;3.47;;;0.00;99.90;;;;;;5088841;28;20401;-77
2022/04/05 06:10:30;;;;;;;6.30;3.38;;;0.20;99.90;;;;;;5087088;28;20043;-77
2022/04/05 06:12:57;;;;;;;7.95;3.63;;;0.10;99.90;;;;;;5088345;28;20087;-76
2022/04/05 06:15:25;;;;;;;5.85;3.17;;;0.30;99.90;;;;;;5091131;28;20139;-77
2022/04/05 06:17:51;;;;;;;4.63;3.10;;;0.40;99.90;;;;;;5074423;28;20056;-77
2022/04/05 06:20:19;;;;;;;4.72;3.33;;;1.00;99.90;;;;;;5079496;28;20132;-77
2022/04/05 06:22:51;;;;;;;5.45;3.30;;;1.40;99.90;;;;;;5081733;28;20066;-77
2022/04/05 06:25:22;;;;;;;4.47;3.42;;;1.30;99.90;;;;;;5070728;28;20029;-77
2022/04/05 06:27:48;;;;;;;;;;;1.30;99.90;;;;;;5086161;28;20024;-77
2022/04/05 06:30:16;;;;;;;5.13;3.47;;;2.20;99.90;;;;;;5087296;28;19911;-77
2022/04/05 06:32:43;;;;;;;6.97;3.88;;;3.30;99.90;;;;;;5087930;28;20118;-76
2022/04/05 06:35:10;;;;;;;5.15;3.40;;;4.20;99.60;;;;;;5081425;28;20024;-77
2022/04/05 06:37:37;;;;;;;12.13;4.15;;;4.90;98.00;;;;;;5089813;28;20068;-77
2022/04/05 06:40:05;;;;;;;7.85;4.32;;;4.80;97.60;;;;;;5083790;28;20024;-77
2022/04/05 06:42:31;;;;;;;6.43;4.10;;;3.60;99.00;;;;;;5086544;28;20115;-77
2022/04/05 06:44:57;;;;;;;7.60;3.80;;;2.60;99.90;;;;;;5086231;28;20023;-77
2022/04/05 06:47:23;;;;;;;6.88;4.20;;;3.70;99.90;;;;;;5087945;28;20032;-77
2022/04/05 06:49:49;;;;;;;8.30;4.78;;;2.40;99.90;;;;;;5089129;28;20024;-77
2022/04/05 06:52:14;;;;;;;9.52;4.35;;;2.20;99.90;;;;;;5081409;28;20418;-76
2022/04/05 06:54:40;;;;;;;6.22;3.70;;;4.00;99.90;;;;;;5090349;28;20405;-77
2022/04/05 06:57:06;;;;;;;6.15;3.70;;;4.30;99.00;;;;;;5074605;28;20421;-77
2022/04/05 06:59:31;;;;;;;7.05;4.10;;;3.10;99.90;;;;;;5088430;28;20471;-77
2022/04/05 07:01:57;;;;;;;6.25;4.07;;;2.70;99.90;;;;;;5075790;28;20117;-77
2022/04/05 07:04:23;;;;;;;7.05;4.40;;;3.00;99.90;;;;;;5078606;28;20032;-77
2022/04/05 07:06:49;;;;;;;7.35;4.60;;;3.00;99.90;;;;;;5089082;28;20032;-77
2022/04/05 07:09:14;;;;;;;6.85;4.20;;;6.60;99.10;;;;;;5089672;28;20067;-78
2022/04/05 07:11:40;;;;;;;8.27;5.40;;;10.50;91.80;;;;;;5070855;28;20442;-78
2022/04/05 07:14:06;;;;;;;8.00;4.82;;;11.50;88.90;;;;;;5078838;28;20086;-78
2022/04/05 07:16:32;;;;;;;7.30;4.63;;;13.40;82.90;;;;;;5080708;28;20032;-76
2022/04/05 07:18:58;;;;;;;8.95;4.90;;;13.60;81.50;;;;;;5085641;28;20440;-75
2022/04/05 07:21:23;;;;;;;6.78;4.97;;;13.60;79.30;;;;;;5087874;28;20400;-76
2022/04/05 07:23:50;;;;;;;7.88;4.72;;;13.60;80.10;;;;;;5073292;28;20569;-76
2022/04/05 07:26:16;;;;;;;6.95;5.30;;;13.20;80.60;;;;;;5078932;28;20028;-76
2022/04/05 07:28:41;;;;;;;6.35;4.45;;;13.20;81.00;;;;;;5081164;28;20017;-77
2022/04/05 07:31:07;;;;;;;8.68;4.82;;;13.10;80.50;;;;;;5077207;28;20453;-77
2022/04/05 07:33:33;;;;;;;7.40;5.03;;;12.70;81.00;;;;;;5086389;28;20035;-77
2022/04/05 07:35:59;;;;;;;8.93;6.03;;;12.40;83.60;;;;;;5085770;28;20107;-77
2022/04/05 07:38:24;;;;;;;9.35;4.93;;;11.80;83.70;;;;;;5086174;28;20386;-77
2022/04/05 07:40:52;;;;;;;6.95;4.55;;;11.90;84.50;;;;;;5079606;28;20016;-77
2022/04/05 07:43:28;;;;;;;9.20;5.38;;;12.00;84.60;;;;;;5077231;28;20038;-77
2022/04/05 07:45:54;;;;;;;8.93;4.90;;;11.80;85.80;;;;;;5089882;28;20027;-77
2022/04/05 07:48:25;;;;;;;7.00;4.95;;;11.60;86.50;;;;;;5092409;28;20020;-77
2022/04/05 07:50:51;;;;;;;7.17;5.53;;;11.00;88.90;;;;;;5088757;28;20150;-77
2022/04/05 07:53:17;;;;;;;9.38;5.78;;;10.40;89.70;;;;;;5092039;28;20418;-77
2022/04/05 07:55:43;;;;;;;10.98;6.22;;;10.60;90.40;;;;;;5084458;28;20106;-77
2022/04/05 07:58:09;;;;;;;10.65;5.90;;;9.90;90.70;;;;;;5092852;28;20119;-78
2022/04/05 08:00:36;;;;;;;10.38;6.60;;;10.50;91.00;;;;;;5091902;28;20103;-77
2022/04/05 08:03:02;;;;;;;8.77;5.82;;;10.30;90.60;;;;;;5094237;28;20132;-79
2022/04/05 08:05:27;;;;;;;10.23;5.60;;;10.40;91.00;;;;;;5086704;28;20028;-78
2022/04/05 08:07:54;;;;;;;7.15;5.35;;;10.20;90.90;;;;;;5091890;28;20455;-78
2022/04/05 08:10:20;;;;;;;8.02;5.28;;;10.30;91.20;;;;;;5091848;28;20036;-78
2022/04/05 08:12:47;;;;;;;7.97;5.90;;;11.20;90.60;;;;;;5091621;28;20066;-78
2022/04/05 08:15:17;;;;;;;10.98;6.30;;;11.50;88.40;;;;;;5093704;28;20020;-78
2022/04/05 08:17:42;;;;;;;9.25;6.28;;;10.10;91.20;;;;;;5086649;28;20485;-78
2022/04/05 08:20:09;;;;;;;10.65;5.50;;;10.50;90.90;;;;;;5084350;28;20016;-78
2022/04/05 08:22:35;;;;;;;11.95;6.50;;;10.70;91.30;;;;;;5085306;28;20028;-78
2022/04/05 08:25:00;;;;;;;11.38;6.38;;;11.00;90.90;;;;;;5076651;28;20070;-78
2022/04/05 08:27:26;;;;;;;10.77;6.65;;;11.00;90.80;;;;;;5090856;28;20382;-78
2022/04/05 08:29:52;;;;;;;9.85;5.80;;;11.30;90.60;;;;;;5087783;28;20055;-78
2022/04/05 08:32:18;;;;;;;8.55;5.72;;;11.90;90.00;;;;;;5086826;28;20067;-78
2022/04/05 08:34:45;;;;;;;9.32;5.97;;;12.10;90.80;;;;;;5091097;28;20374;-78
2022/04/05 08:37:12;;;;;;;7.10;5.72;;;12.20;89.90;;;;;;5091761;28;20031;-78
2022/04/05 08:39:38;;;;;;;7.93;5.35;;;12.00;88.60;;;;;;5091100;28;20025;-78
2022/04/05 08:42:05;;;;;;;10.75;5.22;;;13.00;88.00;;;;;;5094351;28;20028;-78
2022/04/05 08:44:31;;;;;;;8.73;5.28;;;13.20;85.90;;;;;;5091960;28;20028;-78
2022/04/05 08:47:01;;;;;;;7.70;5.03;;;13.60;81.50;;;;;;5085891;28;20040;-78
2022/04/05 08:49:29;;;;;;;9.65;4.97;;;13.30;83.00;;;;;;5074675;28;20533;-79
2022/04/05 08:51:55;;;;;;;7.40;4.50;;;14.10;81.70;;;;;;5092353;28;20034;-78
2022/04/05 08:54:21;;;;;;;5.90;4.32;;;14.50;81.10;;;;;;5091018;28;20484;-78
2022/04/05 08:56:47;;;;;;;6.78;4.00;;;14.90;81.20;;;;;;5092966;28;20051;-78
2022/04/05 08:59:16;;;;;;;10.13;5.13;;;15.00;79.90;;;;;;5091550;28;20115;-78
2022/04/05 09:01:43;;;;;;;7.60;5.35;;;14.60;78.40;;;;;;5086306;28;20055;-78
2022/04/05 09:04:10;;;;;;;7.78;5.07;;;14.10;77.90;;;;;;5072893;28;20052;-78
2022/04/05 09:06:36;;;;;;;6.20;4.45;;;14.60;77.40;;;;;;5091978;28;20032;-78
2022/04/05 09:09:13;;;;;;;7.13;4.90;;;13.90;77.70;;;;;;5076980;28;20052;-78
2022/04/05 09:11:56;;;;;;;9.07;5.43;;;14.20;76.60;;;;;;5092486;28;20043;-78
2022/04/05 09:14:26;;;;;;;6.45;4.57;;;14.20;75.90;;;;;;5089732;28;20503;-78
2022/04/05 09:17:06;;;;;;;7.85;4.88;;;14.40;78.10;;;;;;5083322;28;20024;-78
2022/04/05 09:19:37;;;;;;;6.10;4.93;;;14.30;77.60;;;;;;5083839;28;20071;-78
2022/04/05 09:22:03;;;;;;;6.43;4.38;;;14.40;77.30;;;;;;5086440;28;20118;-78
2022/04/05 09:24:34;;;;;;;8.15;5.10;;;14.40;78.00;;;;;;5087569;28;20020;-78
2022/04/05 09:27:00;;;;;;;9.82;5.88;;;15.20;76.90;;;;;;5077564;28;20046;-78
2022/04/05 09:29:43;;;;;;;8.35;5.85;;;14.20;77.60;;;;;;5088045;28;20511;-78
2022/04/05 09:32:09;;;;;;;8.13;5.35;;;14.00;77.20;;;;;;5089208;28;20020;-78
2022/04/05 09:34:54;;;;;;;7.55;4.82;;;14.00;78.60;;;;;;5082550;28;20028;-78
2022/04/05 09:37:26;;;;;;;8.10;5.35;;;15.20;71.70;;;;;;5084501;28;20417;-78
2022/04/05 09:39:55;;;;;;;8.48;5.50;;;15.50;72.20;;;;;;5086655;28;20039;-78
2022/04/05 09:42:21;;;;;;;7.03;4.55;;;16.00;72.00;;;;;;5070253;28;20494;-78
2022/04/05 09:44:46;;;;;;;7.82;5.38;;;16.10;71.20;;;;;;5085543;28;20020;-78
2022/04/05 09:47:21;;;;;;;8.85;5.50;;;14.70;74.40;;;;;;5082740;28;20531;-78
2022/04/05 09:49:50;;;;;;;8.25;4.63;;;15.60;70.70;;;;;;5090557;28;20035;-78
2022/04/05 09:52:32;;;;;;;6.28;4.43;;;15.70;69.80;;;;;;5090288;28;20036;-77
2022/04/05 09:55:16;;;;;;;6.70;4.10;;;16.00;68.90;;;;;;5090799;28;20040;-78
2022/04/05 09:57:43;;;;;;;8.70;4.95;;;15.80;68.60;;;;;;5088547;28;20016;-78
2022/04/05 10:00:10;;;;;;;9.32;4.97;;;15.90;67.50;;;;;;5084099;28;20035;-78
2022/04/05 10:02:36;;;;;;;7.60;5.30;;;16.20;68.80;;;;;;5089447;28;20085;-78
2022/04/05 10:05:09;;;;;;;6.45;4.53;;;15.70;69.30;;;;;;5082738;28;20028;-78
2022/04/05 10:07:36;;;;;;;6.43;4.22;;;15.50;69.20;;;;;;5073280;28;20115;-78
2022/04/05 10:10:06;;;;;;;10.65;6.18;;;15.90;65.20;;;;;;5089632;28;20077;-78
2022/04/05 10:12:32;;;;;;;7.40;4.88;;;15.80;66.30;;;;;;5087962;28;20122;-78
2022/04/05 10:14:59;;;;;;;7.13;4.90;;;16.00;68.30;;;;;;5086429;28;20029;-78
2022/04/05 10:17:26;;;;;;;9.02;5.10;;;16.00;67.40;;;;;;5084919;28;20134;-78
2022/04/05 10:19:54;;;;;;;8.45;4.90;;;16.20;66.30;;;;;;5089724;28;20034;-78
2022/04/05 10:22:22;;;;;;;9.13;5.47;;;15.70;66.50;;;;;;5085785;28;20032;-79
2022/04/05 10:24:52;;;;;;;8.00;5.43;;;15.90;66.20;;;;;;5085915;28;20028;-78
2022/04/05 10:27:20;;;;;;;8.30;5.90;;;16.00;67.30;;;;;;5087164;28;20028;-78
2022/04/05 10:29:48;;;;;;;7.85;5.40;;;16.00;63.70;;;;;;5082962;28;20024;-78
2022/04/05 10:32:41;;;;;;;7.97;4.75;;;16.10;67.40;;;;;;5079767;28;20037;-78
2022/04/05 10:35:08;;;;;;;9.93;4.93;;;16.10;66.40;;;;;;5083837;28;20024;-78
2022/04/05 10:37:35;;;;;;;10.82;5.60;;;16.20;65.80;;;;;;5087913;28;20032;-78
2022/04/05 10:40:01;;;;;;;8.90;5.32;;;15.80;64.90;;;;;;5089941;28;20016;-78
2022/04/05 10:42:53;;;;;;;6.55;4.85;;;15.70;64.90;;;;;;5072246;28;20031;-78
2022/04/05 10:45:21;;;;;;;8.77;5.20;;;16.00;66.10;;;;;;5086762;28;20063;-78
2022/04/05 10:48:18;;;;;;;6.40;4.80;;;15.00;67.50;;;;;;5074309;28;20032;-78
2022/04/05 10:51:01;;;;;;;12.85;6.28;;;15.20;68.00;;;;;;5090457;28;20110;-78
2022/04/05 10:53:35;;;;;;;7.72;5.07;;;14.90;66.00;;;;;;5078182;28;20036;-79
2022/04/05 10:56:03;;;;;;;7.63;4.57;;;14.00;69.60;;;;;;5077788;28;20048;-78
2022/04/05 10:58:34;;;;;;;8.50;5.30;;;14.60;68.40;;;;;;5079143;28;20123;-78
2022/04/05 11:01:18;;;;;;;5.75;4.05;;;15.00;67.40;;;;;;5085436;28;20017;-78
2022/04/05 11:04:20;;;;;;;7.13;4.78;;;15.20;65.50;;;;;;5069784;28;20024;-78
2022/04/05 11:07:01;;;;;;;7.03;4.40;;;14.30;67.20;;;;;;5068852;28;20028;-78
2022/04/05 11:09:27;;;;;;;12.25;4.70;;;14.30;68.00;;;;;;5085734;28;20028;-78
2022/04/05 11:11:54;;;;;;;11.57;6.15;;;14.00;66.10;;;;;;5070986;28;20032;-78
2022/04/05 11:14:42;;;;;;;8.02;5.70;;;13.40;66.50;;;;;;5079275;28;20028;-78
2022/04/05 11:17:14;;;;;;;6.40;5.13;;;13.60;67.30;;;;;;5083059;28;20020;-78
2022/04/05 11:19:43;;;;;;;8.60;5.68;;;14.00;67.10;;;;;;5088525;28;20032;-78
2022/04/05 11:22:20;;;;;;;8.00;4.50;;;13.80;66.90;;;;;;5085453;28;20020;-78
2022/04/05 11:25:03;;;;;;;5.68;4.13;;;14.10;68.30;;;;;;5071689;28;20100;-78
2022/04/05 11:27:28;;;;;;;7.70;4.78;;;14.30;67.90;;;;;;5087644;28;20016;-78
2022/04/05 11:30:28;;;;;;;8.50;5.50;;;14.40;69.20;;;;;;5070997;28;20027;-78
2022/04/05 11:33:08;;;;;;;8.50;5.15;;;14.60;70.20;;;;;;5083565;28;20055;-78
2022/04/05 11:35:36;;;;;;;9.05;4.90;;;14.30;69.00;;;;;;5089387;28;20034;-78
2022/04/05 11:38:06;;;;;;;6.90;4.88;;;13.90;69.10;;;;;;5086414;28;20016;-78
2022/04/05 11:40:32;;;;;;;7.53;4.85;;;14.10;68.90;;;;;;5083378;28;20573;-78
2022/04/05 11:43:02;;;;;;;6.70;4.50;;;13.90;68.20;;;;;;5088229;28;20024;-78
2022/04/05 11:45:33;;;;;;;5.93;3.83;;;14.00;71.30;;;;;;5089258;28;20036;-78
2022/04/05 11:47:59;;;;;;;9.63;4.22;;;14.20;69.80;;;;;;5090971;28;20131;-79
2022/04/05 11:50:24;;;;;;;4.63;3.80;;;14.50;71.70;;;;;;5089046;28;20481;-78
2022/04/05 11:52:50;;;;;;;5.55;3.72;;;14.40;69.90;;;;;;5088177;28;20107;-79
2022/04/05 11:58:05;;;;;;;5.03;3.38;;;14.60;70.30;;;;;;5089279;28;20062;-79
2022/04/05 12:00:33;;;;;;;5.75;3.72;;;14.50;70.30;;;;;;5086738;28;20055;-79
2022/04/05 12:03:10;;;;;;;5.40;3.80;;;14.70;71.00;;;;;;5075149;28;20027;-79
2022/04/05 12:05:43;;;;;;;6.10;3.50;;;14.60;69.90;;;;;;5080796;28;20030;-79
2022/04/05 12:08:14;;;;;;;6.78;4.05;;;14.90;71.00;;;;;;5071174;28;20556;-78
2022/04/05 12:10:41;;;;;;;5.97;3.78;;;14.60;68.90;;;;;;5076166;28;20509;-79
2022/04/05 12:13:07;;;;;;;8.32;4.03;;;14.70;70.90;;;;;;5069157;28;20074;-78
2022/04/05 12:15:37;;;;;;;6.72;4.22;;;14.70;69.60;;;;;;5084902;28;20440;-78
2022/04/05 12:18:27;;;;;;;5.72;4.25;;;14.70;70.30;;;;;;5070510;28;20107;-78
2022/04/05 12:20:57;;;;;;;6.55;4.15;;;14.10;68.50;;;;;;5084627;28;20024;-79
2022/04/05 12:23:27;;;;;;;7.75;4.70;;;14.20;71.50;;;;;;5074504;28;20035;-79
2022/04/05 12:26:18;;;;;;;7.57;4.95;;;14.60;70.60;;;;;;5075235;28;20563;-79
2022/04/05 12:28:53;;;;;;;7.93;4.38;;;14.20;71.70;;;;;;5081574;28;20025;-79
2022/04/05 12:31:26;;;;;;;6.00;4.38;;;14.50;70.00;;;;;;5081458;28;20032;-79
2022/04/05 12:33:56;;;;;;;5.55;4.07;;;14.30;72.30;;;;;;5091274;28;20115;-79
2022/04/05 12:36:25;;;;;;;5.15;3.70;;;14.00;70.10;;;;;;5073666;28;20020;-79
2022/04/05 12:38:51;;;;;;;6.70;3.45;;;14.40;71.60;;;;;;5075103;28;20032;-79
2022/04/05 12:41:18;;;;;;;5.38;3.38;;;14.50;69.60;;;;;;5077286;28;20052;-78
2022/04/05 12:43:46;;;;;;;7.35;4.10;;;14.70;71.30;;;;;;5083787;28;20032;-79
2022/04/05 12:46:14;;;;;;;9.88;5.07;;;15.00;72.00;;;;;;5090530;28;20020;-79
2022/04/05 12:48:43;;;;;;;5.25;4.05;;;14.90;68.50;;;;;;5091178;28;20024;-79
2022/04/05 12:51:09;;;;;;;4.80;3.35;;;14.80;69.40;;;;;;5074276;28;20020;-80
2022/04/05 12:53:38;;;;;;;4.18;3.60;;;14.70;69.50;;;;;;5089867;28;20043;-79
2022/04/05 12:56:14;;;;;;;6.32;4.20;;;14.50;69.60;;;;;;5085485;28;20177;-79
2022/04/05 12:58:42;;;;;;;6.80;4.00;;;14.00;70.70;;;;;;5082900;28;20016;-79